Time;durP1;ratioP1;P1;durP2;ratioP2;P2;SDS_P1;SDS_P2;PMS_P1;PMS_P2;Temp;Humidity;BMP_temperature;BMP_pressure;BME280_temperature;BME280_humidity;BME280_pressure;Samples;Min_cycle;Max_cycle;Signal;HPM_P1;HPM_P2
2022/10/25 08:01:46;;;;;;;7.40;6.00;;;;;;;13.12;100.00;101325.44;5271224;28;20402;-79
2022/10/25 08:04:17;;;;;;;12.95;7.47;;;;;;;13.15;100.00;101333.22;5263693;28;20395;-76
2022/10/25 08:06:49;;;;;;;10.88;6.30;;;;;;;13.17;100.00;101334.56;5259886;28;20029;-73
2022/10/25 08:09:20;;;;;;;11.70;6.03;;;;;;;13.28;100.00;101329.75;5252769;28;20077;-72
2022/10/25 08:11:51;;;;;;;10.75;6.10;;;;;;;13.26;100.00;101337.53;5262030;28;20036;-72
2022/10/25 08:14:25;;;;;;;13.70;6.07;;;;;;;13.37;100.00;101335.47;5267636;28;20029;-72
2022/10/25 08:16:57;;;;;;;10.63;6.43;;;;;;;13.34;100.00;101336.09;5279236;28;20027;-72
2022/10/25 08:19:31;;;;;;;9.00;5.20;;;;;;;13.47;100.00;101344.56;5266410;28;20479;-71
2022/10/25 08:22:02;;;;;;;8.82;5.55;;;;;;;13.47;100.00;101344.56;5257908;28;20026;-72
2022/10/25 08:24:34;;;;;;;9.98;6.28;;;;;;;13.59;100.00;101338.56;5259178;28;20039;-71
2022/10/25 08:27:06;;;;;;;6.93;5.50;;;;;;;13.43;100.00;101340.72;5253020;28;20021;-71
2022/10/25 08:29:41;;;;;;;8.55;5.97;;;;;;;13.44;100.00;101339.56;5258048;28;20033;-71
2022/10/25 08:32:13;;;;;;;9.95;5.95;;;;;;;13.48;100.00;101345.41;5271781;28;20048;-72
2022/10/25 08:34:45;;;;;;;9.43;8.23;;;;;;;13.77;100.00;101342.50;5259023;28;20118;-72
2022/10/25 08:37:16;;;;;;;9.98;5.05;;;;;;;13.69;100.00;101351.53;5257986;28;20464;-73
2022/10/25 08:39:47;;;;;;;9.52;5.47;;;;;;;13.60;100.00;101342.16;5258324;28;20108;-73
2022/10/25 08:42:33;;;;;;;8.48;5.78;;;;;;;13.63;100.00;101342.41;5256360;28;20029;-73
2022/10/25 08:45:27;;;;;;;9.73;4.65;;;;;;;13.66;100.00;101346.56;5237226;28;20026;-73
2022/10/25 08:48:01;;;;;;;9.20;4.95;;;;;;;13.63;100.00;101347.16;5242078;28;20021;-73
2022/10/25 08:50:45;;;;;;;11.05;5.10;;;;;;;13.82;100.00;101352.78;5257994;28;20033;-73
2022/10/25 08:53:26;;;;;;;7.38;4.63;;;;;;;13.94;100.00;101352.34;5262596;28;20126;-73
2022/10/25 08:56:00;;;;;;;7.43;4.90;;;;;;;13.84;100.00;101359.69;5258623;28;20029;-74
2022/10/25 08:58:44;;;;;;;7.45;4.90;;;;;;;13.89;100.00;101361.59;5257454;28;20042;-73
2022/10/25 09:01:24;;;;;;;9.55;5.03;;;;;;;13.86;100.00;101357.44;5256603;28;20136;-74
2022/10/25 09:03:57;;;;;;;6.65;4.40;;;;;;;13.88;100.00;101355.19;5257698;28;20033;-73
2022/10/25 09:06:49;;;;;;;9.07;5.25;;;;;;;13.93;100.00;101357.06;5257543;28;20495;-74
2022/10/25 09:09:37;;;;;;;9.82;5.47;;;;;;;13.94;100.00;101361.53;5258273;28;20017;-74
2022/10/25 09:12:40;;;;;;;7.53;5.53;;;;;;;14.05;100.00;101370.56;5248755;28;20041;-73
2022/10/25 09:15:37;;;;;;;11.00;4.88;;;;;;;14.00;100.00;101373.44;5243062;28;20037;-73
2022/10/25 09:18:15;;;;;;;12.15;5.00;;;;;;;14.00;100.00;101379.00;5235191;28;20562;-77
2022/10/25 09:20:58;;;;;;;10.15;5.05;;;;;;;14.03;100.00;101378.41;5253960;28;20375;-75
2022/10/25 09:23:31;;;;;;;9.20;4.65;;;;;;;14.05;100.00;101387.31;5256699;28;20061;-77
2022/10/25 09:26:07;;;;;;;6.65;4.47;;;;;;;14.07;100.00;101383.09;5247243;28;20051;-77
2022/10/25 09:28:53;;;;;;;8.23;4.93;;;;;;;14.09;100.00;101388.38;5256122;28;20116;-77
2022/10/25 09:31:25;;;;;;;10.63;5.20;;;;;;;14.07;100.00;101390.63;5263541;28;20029;-77
2022/10/25 09:34:01;;;;;;;11.07;7.38;;;;;;;14.10;100.00;101390.03;5235965;28;20105;-77
2022/10/25 09:36:39;;;;;;;9.27;4.80;;;;;;;14.10;100.00;101390.84;5227051;28;20041;-75
2022/10/25 09:39:18;;;;;;;11.35;4.32;;;;;;;14.11;100.00;101392.53;5247378;28;20124;-75
2022/10/25 09:41:58;;;;;;;7.57;4.50;;;;;;;14.11;100.00;101398.09;5247940;28;20017;-79
2022/10/25 09:44:38;;;;;;;8.77;4.65;;;;;;;14.10;100.00;101396.44;5258650;28;20035;-78
2022/10/25 09:47:34;;;;;;;10.07;4.78;;;;;;;14.17;100.00;101396.06;5260842;28;20022;-79
2022/10/25 09:50:06;;;;;;;;;;;;;;;14.25;100.00;101398.19;5243608;28;20037;-79
2022/10/25 09:53:05;;;;;;;8.63;4.22;;;;;;;14.21;100.00;101397.09;5243981;28;19935;-75
2022/10/25 09:55:54;;;;;;;11.38;4.55;;;;;;;14.23;100.00;101405.19;5247572;28;20033;-78
2022/10/25 09:58:31;;;;;;;8.82;5.28;;;;;;;14.19;100.00;101393.81;5243766;28;20013;-77
2022/10/25 10:01:14;;;;;;;10.98;4.35;;;;;;;14.20;100.00;101412.19;5242709;28;20103;-77
2022/10/25 10:03:45;;;;;;;11.30;4.00;;;;;;;14.18;100.00;101405.25;5255461;28;20044;-74
2022/10/25 10:06:25;;;;;;;8.38;3.50;;;;;;;14.19;100.00;101409.69;5252958;28;20025;-73
2022/10/25 10:09:01;;;;;;;7.32;3.50;;;;;;;14.22;100.00;101414.69;5230610;28;20037;-73
2022/10/25 10:11:34;;;;;;;9.43;3.40;;;;;;;14.26;100.00;101412.94;5222884;28;20044;-74
2022/10/25 10:14:32;;;;;;;8.63;4.40;;;;;;;14.31;100.00;101413.69;5238100;28;20025;-74
2022/10/25 10:17:10;;;;;;;9.43;5.03;;;;;;;14.31;100.00;101413.69;5245154;28;20028;-73
2022/10/25 10:19:42;;;;;;;5.95;3.20;;;;;;;14.32;100.00;101418.16;5252843;28;20303;-74
2022/10/25 10:22:16;;;;;;;7.22;3.70;;;;;;;14.31;100.00;101421.25;5261996;28;20083;-74
2022/10/25 10:24:57;;;;;;;9.45;4.18;;;;;;;14.32;100.00;101420.97;5234911;28;20084;-73
2022/10/25 10:27:31;;;;;;;6.88;4.32;;;;;;;14.33;100.00;101421.78;5222041;28;20041;-71
2022/10/25 10:30:07;;;;;;;13.38;3.83;;;;;;;14.38;100.00;101429.25;5221793;28;20473;-69
2022/10/25 10:32:39;;;;;;;10.75;3.90;;;;;;;14.32;100.00;101429.34;5222177;28;20113;-68
2022/10/25 10:35:32;;;;;;;6.32;3.85;;;;;;;14.32;100.00;101426.53;5222547;28;20014;-68
2022/10/25 10:38:18;;;;;;;6.15;3.40;;;;;;;14.32;100.00;101422.94;5250839;28;20052;-68
2022/10/25 10:40:51;;;;;;;6.85;3.17;;;;;;;14.32;100.00;101429.34;5242414;28;20033;-68
2022/10/25 10:43:31;;;;;;;10.43;3.85;;;;;;;14.33;100.00;101433.78;5232205;28;20507;-70
2022/10/25 10:46:07;;;;;;;12.73;4.35;;;;;;;14.39;100.00;101430.91;5242871;28;20021;-70
2022/10/25 10:48:43;;;;;;;10.23;3.92;;;;;;;14.41;100.00;101432.25;5241047;28;20037;-70
2022/10/25 10:51:18;;;;;;;;;;;;;;;14.49;100.00;101428.78;5257008;28;20079;-69
2022/10/25 10:53:49;;;;;;;7.65;3.35;;;;;;;14.47;99.92;101431.06;5254942;28;19966;-70
2022/10/25 10:56:24;;;;;;;9.57;3.75;;;;;;;14.51;99.37;101428.50;5258046;28;20033;-70
2022/10/25 10:58:55;;;;;;;6.53;2.70;;;;;;;14.59;99.79;101416.69;5244820;28;20030;-70
2022/10/25 11:01:33;;;;;;;9.90;3.33;;;;;;;14.69;99.63;101424.06;5221168;28;20076;-70
2022/10/25 11:04:04;;;;;;;11.90;3.92;;;;;;;14.72;99.08;101424.28;5239023;28;20033;-73
2022/10/25 11:06:35;;;;;;;8.43;4.18;;;;;;;14.74;99.07;101423.97;5262639;28;20029;-70
2022/10/25 11:09:14;;;;;;;8.57;3.50;;;;;;;14.77;99.19;101431.75;5262599;28;20056;-70
2022/10/25 11:12:06;;;;;;;7.25;3.40;;;;;;;14.82;99.32;101439.22;5259803;28;20061;-70
2022/10/25 11:14:37;;;;;;;6.15;3.78;;;;;;;14.92;99.11;101430.66;5262723;28;20479;-70
2022/10/25 11:17:18;;;;;;;8.27;3.60;;;;;;;14.91;98.88;101431.81;5238959;28;20028;-70
2022/10/25 11:20:17;;;;;;;6.80;3.40;;;;;;;14.94;98.75;101431.19;5240546;28;20041;-70
2022/10/25 11:23:05;;;;;;;10.10;3.40;;;;;;;15.10;98.89;101429.78;5241878;28;20024;-71
2022/10/25 11:26:06;;;;;;;6.93;3.22;;;;;;;15.13;97.95;101420.78;5240550;28;20488;-72
2022/10/25 11:29:03;;;;;;;8.70;3.15;;;;;;;15.11;95.81;101428.69;5244009;28;20041;-71
2022/10/25 11:31:50;;;;;;;8.20;2.97;;;;;;;15.22;96.15;101427.34;5258287;28;20032;-72
2022/10/25 11:34:24;;;;;;;6.10;3.35;;;;;;;15.14;94.65;101428.06;5239897;28;20025;-70
2022/10/25 11:37:08;;;;;;;6.50;2.58;;;;;;;15.19;94.54;101427.16;5245835;28;20030;-72
2022/10/25 11:39:59;;;;;;;6.18;2.95;;;;;;;15.20;94.17;101424.03;5251168;28;20095;-72
2022/10/25 11:43:08;;;;;;;5.38;2.55;;;;;;;15.18;94.17;101431.88;5261989;28;20075;-73
2022/10/25 11:45:39;;;;;;;9.57;2.90;;;;;;;15.15;93.57;101424.13;5257273;28;20496;-72
2022/10/25 11:48:27;;;;;;;7.47;4.45;;;;;;;15.16;93.79;101424.94;5250986;28;20029;-74
2022/10/25 11:51:12;;;;;;;11.65;2.97;;;;;;;15.20;93.59;101424.03;5224715;28;20053;-74
2022/10/25 11:54:09;;;;;;;8.25;3.33;;;;;;;15.27;94.65;101420.03;5219872;28;20037;-74
2022/10/25 11:56:47;;;;;;;7.53;2.90;;;;;;;15.26;94.74;101415.56;5232710;28;20100;-71
2022/10/25 11:59:29;;;;;;;8.38;3.30;;;;;;;15.37;95.02;101422.63;5239254;28;20485;-70
2022/10/25 12:02:17;;;;;;;6.20;2.65;;;;;;;15.29;94.07;101424.16;5240007;28;20029;-72
2022/10/25 12:05:09;;;;;;;6.10;2.95;;;;;;;15.29;93.60;101421.38;5256816;28;20120;-72
2022/10/25 12:07:48;;;;;;;10.18;3.53;;;;;;;15.31;93.57;101418.25;5226889;28;20477;-73
2022/10/25 12:10:40;;;;;;;8.98;3.33;;;;;;;15.49;93.66;101416.50;5220808;28;20173;-72
2022/10/25 12:13:34;;;;;;;7.25;3.17;;;;;;;15.51;92.60;101414.25;5220817;28;20088;-73
2022/10/25 12:16:11;;;;;;;7.05;4.05;;;;;;;15.63;93.35;101417.38;5239877;28;20021;-73
2022/10/25 12:18:45;;;;;;;16.98;11.93;;;;;;;15.50;91.88;101420.97;5245287;28;20029;-72
2022/10/25 12:21:23;;;;;;;9.33;3.00;;;;;;;15.48;91.84;101417.66;5259342;28;20467;-73
2022/10/25 12:23:54;;;;;;;6.60;3.17;;;;;;;15.48;91.95;101418.50;5247734;28;20118;-73
2022/10/25 12:26:35;;;;;;;6.60;2.53;;;;;;;15.58;92.23;101421.09;5260919;28;20123;-74
2022/10/25 12:29:25;;;;;;;10.82;2.70;;;;;;;15.59;92.17;101419.09;5260687;28;20025;-72
2022/10/25 12:32:00;;;;;;;5.60;2.30;;;;;;;15.60;90.59;101418.00;5260430;28;20029;-73
2022/10/25 12:34:46;;;;;;;4.82;2.40;;;;;;;15.66;90.64;101420.34;5259792;28;20031;-73
2022/10/25 12:37:56;;;;;;;6.78;2.50;;;;;;;15.79;90.36;101420.72;5260803;28;20039;-72
2022/10/25 12:40:28;;;;;;;8.07;2.88;;;;;;;15.77;88.86;101421.03;5251301;28;20111;-73
2022/10/25 12:43:18;;;;;;;10.57;3.22;;;;;;;15.81;88.71;101415.63;5260875;28;20104;-72
2022/10/25 12:46:06;;;;;;;9.98;4.28;;;;;;;15.85;89.37;101413.88;5261702;28;20023;-71
2022/10/25 12:48:58;;;;;;;5.80;2.70;;;;;;;15.91;89.62;101411.81;5255199;28;20026;-72
2022/10/25 12:51:52;;;;;;;4.28;2.90;;;;;;;15.86;89.41;101409.94;5244165;28;20384;-72
2022/10/25 12:54:50;;;;;;;6.97;3.00;;;;;;;15.88;88.84;101409.63;5246350;28;20021;-72
2022/10/25 12:57:39;;;;;;;8.38;2.95;;;;;;;15.86;88.83;101415.53;5255462;28;20030;-73
2022/10/25 13:00:15;;;;;;;4.47;2.30;;;;;;;15.83;88.85;101407.78;5242931;28;20577;-73
2022/10/25 13:03:05;;;;;;;6.63;3.33;;;;;;;15.84;88.06;101404.66;5244229;28;20026;-73
2022/10/25 13:05:43;;;;;;;4.95;2.10;;;;;;;15.81;86.60;101410.88;5243531;28;20124;-73
2022/10/25 13:08:18;;;;;;;7.30;2.60;;;;;;;15.82;86.79;101408.88;5244995;28;20468;-73
2022/10/25 13:10:56;;;;;;;;;;;;;;;15.90;87.07;101396.16;5259244;28;20037;-73
2022/10/25 13:13:32;;;;;;;5.47;2.05;;;;;;;15.88;86.75;101415.22;5244433;28;19932;-73
2022/10/25 13:16:08;;;;;;;10.65;3.05;;;;;;;15.84;85.14;101410.25;5235844;28;20029;-73
2022/10/25 13:18:46;;;;;;;5.57;2.40;;;;;;;15.88;85.32;101410.47;5248288;28;20025;-73
2022/10/25 13:21:52;;;;;;;7.18;2.22;;;;;;;15.95;85.27;101416.47;5264800;28;20021;-73
2022/10/25 13:24:43;;;;;;;4.43;2.13;;;;;;;15.96;86.66;101415.31;5264141;28;20040;-73
2022/10/25 13:27:20;;;;;;;10.07;8.43;;;;;;;16.02;86.93;101400.06;5262083;28;20417;-71
2022/10/25 13:30:03;;;;;;;6.80;2.33;;;;;;;16.02;85.09;101402.03;5243935;28;20025;-72
2022/10/25 13:32:40;;;;;;;5.10;2.55;;;;;;;16.01;85.01;101404.00;5236057;28;20492;-72
2022/10/25 13:35:20;;;;;;;6.50;2.20;;;;;;;15.98;84.20;101401.84;5223408;28;20108;-71
2022/10/25 13:37:54;;;;;;;6.65;2.50;;;;;;;16.01;84.69;101403.19;5243072;28;20076;-72
2022/10/25 13:40:28;;;;;;;10.10;5.57;;;;;;;15.98;85.53;101407.44;5246314;28;20029;-71
2022/10/25 13:43:05;;;;;;;7.20;2.83;;;;;;;15.99;84.85;101406.28;5254717;28;20483;-72
2022/10/25 13:45:43;;;;;;;7.72;3.00;;;;;;;15.96;84.95;101404.13;5263575;28;20025;-69
2022/10/25 13:48:23;;;;;;;7.60;2.80;;;;;;;16.04;84.78;101402.56;5255491;28;20018;-71
2022/10/25 13:50:57;;;;;;;5.80;2.35;;;;;;;16.05;84.87;101393.00;5246897;28;20021;-70
2022/10/25 13:53:46;;;;;;;6.85;2.20;;;;;;;16.14;84.68;101398.72;5263234;28;20087;-72
2022/10/25 13:56:26;;;;;;;4.15;2.45;;;;;;;16.23;85.25;101394.00;5243662;28;20033;-72
2022/10/25 13:58:59;;;;;;;8.00;2.30;;;;;;;16.32;82.88;101391.31;5243215;28;20457;-72
2022/10/25 14:01:36;;;;;;;6.63;2.30;;;;;;;16.42;81.92;101391.91;5242110;28;20065;-72
2022/10/25 14:04:20;;;;;;;7.05;2.58;;;;;;;16.52;81.79;101396.44;5243120;28;20037;-72
2022/10/25 14:06:53;;;;;;;8.07;3.15;;;;;;;16.55;80.88;101397.78;5231577;28;20022;-72
2022/10/25 14:09:24;;;;;;;6.03;2.00;;;;;;;16.61;81.95;101393.69;5242193;28;20028;-72
2022/10/25 14:12:01;;;;;;;4.50;2.10;;;;;;;16.64;81.26;101390.25;5261241;28;20033;-71
2022/10/25 14:14:51;;;;;;;6.05;2.08;;;;;;;16.61;81.20;101385.28;5258332;28;20037;-72
2022/10/25 14:17:35;;;;;;;7.38;3.80;;;;;;;16.61;81.69;101393.69;5262235;28;20037;-72
2022/10/25 14:20:23;;;;;;;12.00;9.30;;;;;;;16.56;81.16;101391.84;5250844;28;20094;-72
2022/10/25 14:23:02;;;;;;;14.65;8.52;;;;;;;16.49;81.17;101389.50;5241348;28;20030;-72
2022/10/25 14:25:47;;;;;;;6.95;2.58;;;;;;;16.42;81.59;101391.91;5242590;28;20354;-72
2022/10/25 14:28:30;;;;;;;3.45;2.42;;;;;;;16.49;82.74;101386.69;5221246;28;20500;-72
2022/10/25 14:31:04;;;;;;;4.88;2.33;;;;;;;16.47;82.45;101391.78;5221830;28;20026;-72
2022/10/25 14:33:53;;;;;;;6.20;2.35;;;;;;;16.60;82.76;101383.66;5222076;28;20469;-72
2022/10/25 14:36:29;;;;;;;7.88;3.75;;;;;;;16.70;82.04;101375.00;5239922;28;20030;-69
2022/10/25 14:39:15;;;;;;;7.30;2.72;;;;;;;16.80;81.41;101377.56;5255743;28;20025;-73
2022/10/25 14:41:56;;;;;;;5.07;2.08;;;;;;;16.82;79.45;101380.03;5220766;28;20042;-73
2022/10/25 14:44:42;;;;;;;3.95;1.52;;;;;;;16.75;77.82;101374.88;5221706;28;20477;-72
2022/10/25 14:47:32;;;;;;;3.28;1.63;;;;;;;16.83;77.92;101374.13;5221687;28;20053;-72
2022/10/25 14:50:04;;;;;;;4.15;1.63;;;;;;;16.76;77.48;101373.72;5220509;28;20029;-71
2022/10/25 14:52:36;;;;;;;4.75;1.98;;;;;;;16.74;78.21;101371.25;5249776;28;20029;-72
2022/10/25 14:55:23;;;;;;;6.60;2.15;;;;;;;16.71;78.91;101363.47;5242185;28;20480;-73
2022/10/25 14:57:57;;;;;;;2.53;1.27;;;;;;;16.68;77.83;101357.69;5226195;28;20037;-72
2022/10/25 15:00:29;;;;;;;2.90;1.55;;;;;;;16.71;78.01;101357.03;5220048;28;20050;-71
2022/10/25 15:03:04;;;;;;;4.78;1.70;;;;;;;16.65;78.23;101355.53;5222499;28;20037;-70
2022/10/25 15:05:40;;;;;;;6.65;3.95;;;;;;;16.58;78.47;101355.94;5262462;28;20063;-71
2022/10/25 15:08:20;;;;;;;3.33;1.88;;;;;;;16.57;78.37;101353.50;5262201;28;20040;-70
2022/10/25 15:11:05;;;;;;;4.45;2.33;;;;;;;16.46;79.34;101358.50;5261262;28;20029;-71
2022/10/25 15:13:36;;;;;;;5.45;2.78;;;;;;;16.44;79.48;101358.81;5252195;28;20049;-70
2022/10/25 15:16:26;;;;;;;6.03;2.33;;;;;;;16.42;80.28;101366.69;5220972;28;20069;-72
2022/10/25 15:19:04;;;;;;;5.20;2.05;;;;;;;16.36;79.91;101362.38;5241924;28;20033;-70
2022/10/25 15:21:43;;;;;;;6.38;2.65;;;;;;;16.39;80.34;101358.13;5262491;28;20063;-70
2022/10/25 15:24:26;;;;;;;4.43;2.67;;;;;;;16.35;81.25;101352.31;5252043;28;20441;-70
2022/10/25 15:27:01;;;;;;;3.15;1.90;;;;;;;16.35;81.21;101357.91;5240881;28;20051;-70
2022/10/25 15:29:41;;;;;;;9.05;3.20;;;;;;;16.34;81.02;101353.47;5241249;28;20021;-70
2022/10/25 15:32:22;;;;;;;3.25;1.67;;;;;;;16.32;79.88;101346.53;5222594;28;20030;-71
2022/10/25 15:34:55;;;;;;;4.93;2.22;;;;;;;16.27;79.98;101350.28;5221021;28;20022;-71
2022/10/25 15:37:28;;;;;;;5.75;1.80;;;;;;;16.20;79.48;101347.91;5221103;28;20079;-70
2022/10/25 15:39:59;;;;;;;6.65;2.88;;;;;;;16.20;79.31;101344.28;5231080;28;20025;-70
2022/10/25 15:42:31;;;;;;;9.85;2.33;;;;;;;16.20;80.41;101352.69;5241365;28;20044;-70
2022/10/25 15:45:03;;;;;;;6.60;1.80;;;;;;;16.16;81.12;101348.88;5240741;28;20025;-70
2022/10/25 15:47:36;;;;;;;5.03;1.77;;;;;;;16.14;81.04;101351.97;5238720;28;20022;-70
2022/10/25 15:50:17;;;;;;;7.85;2.83;;;;;;;16.15;81.98;101358.38;5248839;28;20414;-70
2022/10/25 15:52:52;;;;;;;4.80;1.50;;;;;;;16.07;81.81;101354.38;5243900;28;20087;-71
2022/10/25 15:55:26;;;;;;;;;;;;;;;16.13;82.04;101357.88;5241511;28;20017;-71
2022/10/25 15:57:59;;;;;;;8.68;2.63;;;;;;;15.97;82.58;101347.03;5240935;28;19917;-71
2022/10/25 16:00:31;;;;;;;6.80;3.88;;;;;;;15.98;82.66;101348.69;5239716;28;20061;-72
2022/10/25 16:03:03;;;;;;;8.45;2.95;;;;;;;15.97;82.84;101341.44;5241412;28;20052;-73
2022/10/25 16:05:36;;;;;;;7.45;2.50;;;;;;;15.86;83.16;101334.44;5234443;28;20388;-72
2022/10/25 16:08:08;;;;;;;7.32;2.50;;;;;;;15.82;83.47;101333.38;5240204;28;20036;-74
2022/10/25 16:10:39;;;;;;;5.75;2.35;;;;;;;15.83;83.62;101340.66;5239503;28;20025;-76
2022/10/25 16:13:31;;;;;;;7.68;3.13;;;;;;;15.84;83.91;101337.53;5240854;28;20025;-75
2022/10/25 16:16:03;;;;;;;5.32;2.47;;;;;;;15.78;83.83;101349.16;5240204;28;20033;-74
2022/10/25 16:18:34;;;;;;;5.50;2.03;;;;;;;15.75;83.98;101344.19;5242158;28;20021;-75
2022/10/25 16:21:06;;;;;;;5.78;2.63;;;;;;;15.69;83.87;101343.44;5238706;28;20034;-76
2022/10/25 16:23:37;;;;;;;4.78;2.47;;;;;;;15.64;84.24;101349.94;5225034;28;20048;-76
2022/10/25 16:26:22;;;;;;;5.88;2.40;;;;;;;15.62;84.22;101343.84;5224539;28;20084;-76
2022/10/25 16:28:53;;;;;;;6.07;2.97;;;;;;;15.58;84.30;101342.00;5224300;28;20473;-75
2022/10/25 16:31:27;;;;;;;5.88;2.55;;;;;;;15.49;84.98;101347.47;5224736;28;20089;-74
2022/10/25 16:34:01;;;;;;;7.97;2.88;;;;;;;15.48;84.69;101348.59;5225998;28;20022;-76
2022/10/25 16:36:33;;;;;;;9.18;4.13;;;;;;;15.45;84.65;101360.41;5244588;28;20013;-76
2022/10/25 16:39:06;;;;;;;6.40;3.47;;;;;;;15.35;84.80;101357.81;5236583;28;20072;-76
2022/10/25 16:41:40;;;;;;;8.05;3.85;;;;;;;15.36;84.88;101349.09;5223385;28;20048;-75
2022/10/25 16:44:14;;;;;;;4.53;2.60;;;;;;;15.34;85.11;101344.97;5240572;28;20032;-77
2022/10/25 16:46:46;;;;;;;7.47;2.70;;;;;;;15.33;84.89;101348.91;5234346;28;20109;-77
2022/10/25 16:49:17;;;;;;;4.28;2.00;;;;;;;15.28;84.76;101346.22;5244725;28;20107;-77
2022/10/25 16:51:51;;;;;;;4.45;2.22;;;;;;;15.30;85.35;101350.34;5244387;28;20022;-76
2022/10/25 16:54:22;;;;;;;7.22;2.88;;;;;;;15.25;85.15;101352.44;5244738;28;20041;-76
2022/10/25 16:56:57;;;;;;;4.32;2.17;;;;;;;15.20;85.70;101344.97;5242770;28;20178;-76
2022/10/25 16:59:31;;;;;;;3.47;1.80;;;;;;;15.18;85.31;101341.66;5259980;28;20040;-76
2022/10/25 17:02:02;;;;;;;6.75;2.00;;;;;;;15.19;85.68;101338.56;5265684;28;20037;-76
2022/10/25 17:04:34;;;;;;;5.55;2.00;;;;;;;15.15;85.45;101337.50;5265112;28;20102;-76
2022/10/25 17:07:08;;;;;;;6.28;1.98;;;;;;;15.11;85.82;101332.84;5265388;28;20078;-77
2022/10/25 17:09:40;;;;;;;7.90;3.17;;;;;;;15.04;85.95;101329.66;5262932;28;20041;-76
2022/10/25 17:12:12;;;;;;;3.63;1.77;;;;;;;15.03;85.69;101328.78;5242504;28;20389;-76
2022/10/25 17:14:43;;;;;;;5.38;2.50;;;;;;;15.00;85.91;101321.88;5241461;28;20025;-76
2022/10/25 17:17:14;;;;;;;4.88;2.40;;;;;;;14.89;86.35;101316.78;5242106;28;20049;-76
2022/10/25 17:19:46;;;;;;;5.05;3.33;;;;;;;14.88;86.61;101320.69;5244230;28;20037;-76
2022/10/25 17:22:19;;;;;;;5.97;2.72;;;;;;;14.84;86.79;101330.84;5244247;28;20025;-76
2022/10/25 17:24:50;;;;;;;7.22;2.88;;;;;;;14.81;87.11;101331.47;5243736;28;20030;-75
2022/10/25 17:27:21;;;;;;;6.90;2.92;;;;;;;14.82;86.77;101333.13;5243765;28;20043;-75
2022/10/25 17:29:53;;;;;;;6.63;3.53;;;;;;;14.74;87.19;101323.47;5236342;28;20424;-74
2022/10/25 17:32:27;;;;;;;7.15;2.60;;;;;;;14.76;87.39;101319.25;5221756;28;20499;-74
